Meteo Giornale » Osservazioni meteo Stati Uniti (USA) » Marion
ore: 15:15 - Osservazioni Meteo Marion
Lat. 34° 11' N Lon. 79° 20' W Alt. 28 metri s.l.m.
30 °C
Nuvoloso
Temp. 24 Ore
21 °C
32 °C
Nord
0 Km/h
Dew point 17 °C
Umidità 45 %
Visibilità 10 Km
Il sole sorge alle ore 06:50
Il sole tramonta alle ore 19:44
| Data e Ora | Cielo e Fenomeni | T °C | DP °C | Um. % | Pres. hPa | Vis. km | Vento km/h | |
|---|---|---|---|---|---|---|---|---|
| Oggi h: 15:15 | Nuvoloso | 30 | 17 | 45 | 1018 | 10 | N 0 | |
| Oggi h: 14:55 | Nuvoloso | 32 | 17 | 40 | 1018 | 10 | N 0 | |
| Oggi h: 14:40 | Nuvoloso | 32 | 17 | 40 | 1019 | 10 | N 0 | |
| Oggi h: 14:15 | Molto Nuvoloso | 31 | 17 | 43 | 1019 | 10 | N 0 | |
| Oggi h: 13:55 | Nuvoloso | 31 | 17 | 43 | 1019 | 10 | N 0 | |
| Oggi h: 13:35 | Sereno | 30 | 17 | 45 | 1020 | 10 | N 0 | |
| Oggi h: 13:15 | Sereno | 31 | 18 | 45 | 1020 | 10 | N 0 | |
| Oggi h: 12:55 | Sereno | 30 | 18 | 48 | 1020 | 10 | N 0 | |
| Oggi h: 12:35 | Nuvoloso | 30 | 18 | 48 | 1020 | 10 | N 0 | |
| Oggi h: 12:15 | Nuvoloso | 30 | 18 | 48 | 1020 | 10 | N 0 | |
| Oggi h: 11:55 | Molto Nuvoloso | 28 | 18 | 54 | 1020 | 10 | N 0 | |
| Oggi h: 11:35 | Nuvoloso | 30 | 19 | 51 | 1020 | 10 | N 0 | |
| Oggi h: 11:15 | Nuvoloso | 28 | 21 | 65 | 1020 | 10 | N 0 | |
| Oggi h: 10:55 | Nuvoloso | 28 | 21 | 65 | 1020 | 10 | N 0 | |
| Oggi h: 10:35 | Sereno | 28 | 21 | 65 | 1020 | 10 | N 0 | |
| Oggi h: 10:15 | Sereno | 27 | 22 | 74 | 1020 | 10 | N 0 | |
| Oggi h: 09:55 | Sereno | 26 | 23 | 83 | 1020 | 10 | N 0 | |
| Oggi h: 09:35 | Sereno | 26 | 23 | 83 | 1020 | 10 | N 0 | |
| Oggi h: 09:15 | Sereno | 24 | 22 | 88 | 1020 | 10 | N 0 | |
| Oggi h: 08:55 | Foschia | 23 | 21 | 88 | 1020 | 6 | N 0 | |
| Oggi h: 08:35 | Nebbia | 23 | 21 | 88 | 1020 | 2 | N 0 | |
| Oggi h: 08:15 | Nebbia | 22 | 21 | 94 | 1020 | 2 | N 0 | |
| Oggi h: 07:55 | Foschia | 22 | 20 | 88 | 1020 | 8 | N 0 | |
| Oggi h: 07:35 | Molto Nuvoloso | 22 | 20 | 88 | 1020 | 11 | N 0 | |
| Oggi h: 07:15 | Sereno | 21 | 20 | 94 | 1020 | 11 | N 0 | |
| Oggi h: 06:55 | Sereno | 21 | 20 | 94 | 1019 | 11 | N 0 | |
| Oggi h: 06:35 | Sereno | 22 | 20 | 88 | 1019 | 11 | N 0 | |
| Oggi h: 06:15 | Sereno | 22 | 20 | 88 | 1019 | 11 | N 0 | |
| Oggi h: 05:55 | Sereno | 22 | 20 | 88 | 1019 | 11 | N 0 | |
| Oggi h: 05:35 | Nuvoloso | 22 | 20 | 88 | 1019 | 11 | N 0 | |
| Oggi h: 05:15 | Molto Nuvoloso | 22 | 20 | 88 | 1019 | 11 | N 0 | |
| Oggi h: 04:55 | Molto Nuvoloso | 22 | 20 | 88 | 1019 | 11 | N 0 | |
| Oggi h: 04:35 | Molto Nuvoloso | 22 | 20 | 88 | 1019 | 11 | N 0 | |
| Oggi h: 04:15 | Nuvoloso | 22 | 20 | 88 | 1019 | 11 | N 0 | |
| Oggi h: 03:55 | Nuvoloso | 22 | 21 | 94 | 1019 | 11 | N 0 | |
| Oggi h: 03:35 | Molto Nuvoloso | 22 | 21 | 94 | 1019 | 10 | N 0 | |
| Oggi h: 03:15 | Coperto | 22 | 21 | 94 | 1019 | 10 | N 0 | |
| Oggi h: 02:55 | Nuvoloso | 22 | 21 | 94 | 1019 | 10 | N 0 | |
| Oggi h: 02:35 | Sereno | 22 | 21 | 94 | 1019 | 10 | N 0 | |
| Oggi h: 02:15 | Sereno | 22 | 21 | 94 | 1020 | 10 | N 0 | |
| Oggi h: 01:55 | Sereno | 22 | 21 | 94 | 1020 | 10 | N 0 | |
| Oggi h: 01:35 | Sereno | 22 | 21 | 94 | 1020 | 10 | N 0 | |
| Oggi h: 01:15 | Sereno | 23 | 21 | 88 | 1020 | 10 | N 0 | |
| Oggi h: 00:55 | Sereno | 23 | 21 | 88 | 1020 | 10 | N 0 | |
| Oggi h: 00:35 | Sereno | 23 | 21 | 88 | 1020 | 10 | N 0 | |
| Oggi h: 00:15 | Sereno | 23 | 21 | 88 | 1020 | 10 | N 0 | |
| Ieri h: 23:55 | Sereno | 23 | 21 | 88 | 1020 | 10 | N 0 | |
| Ieri h: 23:35 | Sereno | 23 | 21 | 88 | 1020 | 10 | N 0 | |
| Ieri h: 23:15 | Sereno | 23 | 21 | 88 | 1020 | 10 | N 0 | |
| Ieri h: 22:55 | Sereno | 23 | 21 | 88 | 1020 | 10 | N 0 | |
| Ieri h: 22:35 | Sereno | 23 | 21 | 88 | 1020 | 10 | N 0 | |
| Ieri h: 22:15 | Sereno | 23 | 21 | 88 | 1020 | 10 | N 0 | |
| Ieri h: 21:55 | Sereno | 23 | 22 | 94 | 1020 | 10 | N 0 | |
| Ieri h: 21:35 | Sereno | 23 | 22 | 94 | 1020 | 10 | N 0 | |
| Ieri h: 21:15 | Sereno | 23 | 22 | 94 | 1020 | 10 | N 0 | |
| Ieri h: 20:55 | Sereno | 23 | 22 | 94 | 1020 | 10 | N 0 | |
| Ieri h: 20:35 | Sereno | 24 | 22 | 88 | 1020 | 10 | N 0 | |
| Ieri h: 20:15 | Sereno | 25 | 22 | 83 | 1020 | 10 | N 0 | |
| Ieri h: 19:55 | Sereno | 25 | 23 | 88 | 1019 | 10 | N 0 | |
| Ieri h: 19:35 | Sereno | 25 | 23 | 88 | 1019 | 10 | N 0 | |
| Ieri h: 19:15 | Sereno | 26 | 23 | 83 | 1019 | 10 | N 0 | |
| Ieri h: 18:55 | Sereno | 26 | 23 | 83 | 1020 | 10 | N 0 | |
| Ieri h: 18:35 | Sereno | 26 | 23 | 83 | 1020 | 10 | N 0 | |
| Ieri h: 18:15 | Nuvoloso | 26 | 22 | 78 | 1020 | 10 | N 0 | |
| Ieri h: 17:55 | Molto Nuvoloso | 26 | 22 | 78 | 1020 | 10 | N 0 | |
| Ieri h: 17:35 | Molto Nuvoloso | 27 | 21 | 69 | 1020 | 10 | N 0 | |
| Ieri h: 17:15 | Sereno | 29 | 18 | 51 | 1020 | 10 | N 0 | |
| Ieri h: 16:55 | Sereno | 29 | 18 | 51 | 1020 | 10 | N 0 | |
| Ieri h: 16:35 | Sereno | 28 | 19 | 58 | 1020 | 10 | N 0 | |
| Ieri h: 16:15 | Sereno | 28 | 18 | 54 | 1020 | 10 | N 0 | |
| Ieri h: 15:55 | Nuvoloso | 28 | 18 | 54 | 1020 | 10 | N 0 | |
| Ieri h: 15:35 | Sereno | 28 | 19 | 58 | 1020 | 10 | N 0 | |



